sensor_id;sensor_type;location;lat;lon;timestamp;temperature;humidity
30037;DHT22;36325;51.512;-0.382;2022-10-13T00:03:19;14.00;99.90
30037;DHT22;36325;51.512;-0.382;2022-10-13T00:05:48;14.00;99.90
30037;DHT22;36325;51.512;-0.382;2022-10-13T00:08:19;14.00;99.90
30037;DHT22;36325;51.512;-0.382;2022-10-13T00:10:49;14.00;99.90
30037;DHT22;36325;51.512;-0.382;2022-10-13T00:13:23;14.00;99.90
30037;DHT22;36325;51.512;-0.382;2022-10-13T00:15:50;14.00;99.90
30037;DHT22;36325;51.512;-0.382;2022-10-13T00:20:49;14.00;99.90
30037;DHT22;36325;51.512;-0.382;2022-10-13T00:23:17;14.00;99.90
30037;DHT22;36325;51.512;-0.382;2022-10-13T00:25:49;14.00;99.90
30037;DHT22;36325;51.512;-0.382;2022-10-13T00:28:18;14.00;99.90
30037;DHT22;36325;51.512;-0.382;2022-10-13T00:33:16;13.90;99.90
30037;DHT22;36325;51.512;-0.382;2022-10-13T00:35:45;13.90;99.90
30037;DHT22;36325;51.512;-0.382;2022-10-13T00:38:15;13.90;99.90
30037;DHT22;36325;51.512;-0.382;2022-10-13T00:40:50;13.90;99.90
30037;DHT22;36325;51.512;-0.382;2022-10-13T00:45:47;13.90;99.90
30037;DHT22;36325;51.512;-0.382;2022-10-13T00:48:19;13.90;99.90
30037;DHT22;36325;51.512;-0.382;2022-10-13T00:50:48;13.90;99.90
30037;DHT22;36325;51.512;-0.382;2022-10-13T00:53:17;13.90;99.90
30037;DHT22;36325;51.512;-0.382;2022-10-13T00:55:45;13.90;99.90
30037;DHT22;36325;51.512;-0.382;2022-10-13T00:58:15;13.90;99.90
30037;DHT22;36325;51.512;-0.382;2022-10-13T01:00:46;13.90;99.90
30037;DHT22;36325;51.512;-0.382;2022-10-13T01:03:20;13.90;99.90
30037;DHT22;36325;51.512;-0.382;2022-10-13T01:05:52;13.90;99.90
30037;DHT22;36325;51.512;-0.382;2022-10-13T01:08:20;14.00;99.90
30037;DHT22;36325;51.512;-0.382;2022-10-13T01:13:22;13.90;99.90
30037;DHT22;36325;51.512;-0.382;2022-10-13T01:24:55;14.00;99.90
30037;DHT22;36325;51.512;-0.382;2022-10-13T01:30:17;14.00;99.90
30037;DHT22;36325;51.512;-0.382;2022-10-13T01:32:53;14.00;99.90
30037;DHT22;36325;51.512;-0.382;2022-10-13T01:35:29;14.00;99.90
30037;DHT22;36325;51.512;-0.382;2022-10-13T01:41:21;14.00;99.90
30037;DHT22;36325;51.512;-0.382;2022-10-13T01:46:50;14.10;99.90
30037;DHT22;36325;51.512;-0.382;2022-10-13T01:49:21;14.00;99.90
30037;DHT22;36325;51.512;-0.382;2022-10-13T01:51:50;14.10;99.90
30037;DHT22;36325;51.512;-0.382;2022-10-13T01:54:17;14.10;99.90
30037;DHT22;36325;51.512;-0.382;2022-10-13T01:56:55;14.10;99.90
30037;DHT22;36325;51.512;-0.382;2022-10-13T01:59:24;14.10;99.90
30037;DHT22;36325;51.512;-0.382;2022-10-13T02:02:22;14.10;99.90
30037;DHT22;36325;51.512;-0.382;2022-10-13T02:05:08;14.10;99.90
30037;DHT22;36325;51.512;-0.382;2022-10-13T02:07:43;14.10;99.90
30037;DHT22;36325;51.512;-0.382;2022-10-13T02:10:37;14.00;99.90
30037;DHT22;36325;51.512;-0.382;2022-10-13T02:13:07;14.10;99.90
30037;DHT22;36325;51.512;-0.382;2022-10-13T02:15:45;14.10;99.90
30037;DHT22;36325;51.512;-0.382;2022-10-13T02:18:16;14.10;99.90
30037;DHT22;36325;51.512;-0.382;2022-10-13T02:20:44;14.10;99.90
30037;DHT22;36325;51.512;-0.382;2022-10-13T02:23:14;14.00;99.90
30037;DHT22;36325;51.512;-0.382;2022-10-13T02:25:43;14.10;99.90
30037;DHT22;36325;51.512;-0.382;2022-10-13T02:28:14;14.00;99.90
30037;DHT22;36325;51.512;-0.382;2022-10-13T02:30:42;14.00;99.90
30037;DHT22;36325;51.512;-0.382;2022-10-13T02:33:11;14.00;99.90
30037;DHT22;36325;51.512;-0.382;2022-10-13T02:35:39;14.00;99.90
30037;DHT22;36325;51.512;-0.382;2022-10-13T02:38:08;14.00;99.90
30037;DHT22;36325;51.512;-0.382;2022-10-13T02:43:03;14.00;99.90
30037;DHT22;36325;51.512;-0.382;2022-10-13T02:50:25;13.90;99.90
30037;DHT22;36325;51.512;-0.382;2022-10-13T02:52:52;13.90;99.90
30037;DHT22;36325;51.512;-0.382;2022-10-13T03:02:50;13.80;99.90
30037;DHT22;36325;51.512;-0.382;2022-10-13T03:05:17;13.80;99.90
30037;DHT22;36325;51.512;-0.382;2022-10-13T03:07:44;13.80;99.90
30037;DHT22;36325;51.512;-0.382;2022-10-13T03:10:12;13.80;99.90
30037;DHT22;36325;51.512;-0.382;2022-10-13T03:12:39;13.80;99.90
30037;DHT22;36325;51.512;-0.382;2022-10-13T03:15:07;13.80;99.90
30037;DHT22;36325;51.512;-0.382;2022-10-13T03:20:11;13.80;99.90
30037;DHT22;36325;51.512;-0.382;2022-10-13T03:22:41;13.80;99.90
30037;DHT22;36325;51.512;-0.382;2022-10-13T03:25:16;13.80;99.90
30037;DHT22;36325;51.512;-0.382;2022-10-13T03:27:44;13.70;99.90
30037;DHT22;36325;51.512;-0.382;2022-10-13T03:30:12;13.70;99.90
30037;DHT22;36325;51.512;-0.382;2022-10-13T03:32:39;13.80;99.90
30037;DHT22;36325;51.512;-0.382;2022-10-13T03:35:07;13.70;99.90
30037;DHT22;36325;51.512;-0.382;2022-10-13T03:37:34;13.70;99.90
30037;DHT22;36325;51.512;-0.382;2022-10-13T03:40:06;13.70;99.90
30037;DHT22;36325;51.512;-0.382;2022-10-13T03:42:37;13.70;99.90
30037;DHT22;36325;51.512;-0.382;2022-10-13T03:45:06;13.70;99.90
30037;DHT22;36325;51.512;-0.382;2022-10-13T03:47:35;13.70;99.90
30037;DHT22;36325;51.512;-0.382;2022-10-13T03:50:04;13.70;99.90
30037;DHT22;36325;51.512;-0.382;2022-10-13T03:52:31;13.70;99.90
30037;DHT22;36325;51.512;-0.382;2022-10-13T03:54:59;13.70;99.90
30037;DHT22;36325;51.512;-0.382;2022-10-13T03:57:28;13.70;99.90
30037;DHT22;36325;51.512;-0.382;2022-10-13T03:59:56;13.70;99.90
30037;DHT22;36325;51.512;-0.382;2022-10-13T04:02:41;13.70;99.90
30037;DHT22;36325;51.512;-0.382;2022-10-13T04:05:09;13.70;99.90
30037;DHT22;36325;51.512;-0.382;2022-10-13T04:07:36;13.70;99.90
30037;DHT22;36325;51.512;-0.382;2022-10-13T04:10:20;13.70;99.90
30037;DHT22;36325;51.512;-0.382;2022-10-13T04:15:17;13.70;99.90
30037;DHT22;36325;51.512;-0.382;2022-10-13T04:17:44;13.70;99.90
30037;DHT22;36325;51.512;-0.382;2022-10-13T04:20:13;13.70;99.90
30037;DHT22;36325;51.512;-0.382;2022-10-13T04:22:43;13.70;99.90
30037;DHT22;36325;51.512;-0.382;2022-10-13T04:25:12;13.70;99.90
30037;DHT22;36325;51.512;-0.382;2022-10-13T04:27:53;13.70;99.90
30037;DHT22;36325;51.512;-0.382;2022-10-13T04:30:21;13.70;99.90
30037;DHT22;36325;51.512;-0.382;2022-10-13T04:32:48;13.70;99.90
30037;DHT22;36325;51.512;-0.382;2022-10-13T04:35:16;13.70;99.90
30037;DHT22;36325;51.512;-0.382;2022-10-13T04:37:57;13.70;99.90
30037;DHT22;36325;51.512;-0.382;2022-10-13T04:40:39;15.70;99.90
30037;DHT22;36325;51.512;-0.382;2022-10-13T04:43:07;13.60;99.90
30037;DHT22;36325;51.512;-0.382;2022-10-13T04:45:35;13.60;99.90
30037;DHT22;36325;51.512;-0.382;2022-10-13T04:48:03;13.70;99.90
30037;DHT22;36325;51.512;-0.382;2022-10-13T04:50:39;13.70;99.90
30037;DHT22;36325;51.512;-0.382;2022-10-13T04:53:07;13.60;99.90
30037;DHT22;36325;51.512;-0.382;2022-10-13T04:55:35;13.60;99.90
30037;DHT22;36325;51.512;-0.382;2022-10-13T04:58:03;13.70;99.90
30037;DHT22;36325;51.512;-0.382;2022-10-13T05:00:31;13.60;99.90
30037;DHT22;36325;51.512;-0.382;2022-10-13T05:02:59;13.60;99.90
30037;DHT22;36325;51.512;-0.382;2022-10-13T05:05:35;13.60;99.90
30037;DHT22;36325;51.512;-0.382;2022-10-13T05:08:22;13.60;99.90
30037;DHT22;36325;51.512;-0.382;2022-10-13T05:11:00;13.60;99.90
30037;DHT22;36325;51.512;-0.382;2022-10-13T05:13:32;13.60;99.90
30037;DHT22;36325;51.512;-0.382;2022-10-13T05:16:10;13.50;99.90
30037;DHT22;36325;51.512;-0.382;2022-10-13T05:18:54;13.40;99.90
30037;DHT22;36325;51.512;-0.382;2022-10-13T05:21:35;13.40;99.90
30037;DHT22;36325;51.512;-0.382;2022-10-13T05:24:05;13.40;99.90
30037;DHT22;36325;51.512;-0.382;2022-10-13T05:26:49;13.40;99.90
30037;DHT22;36325;51.512;-0.382;2022-10-13T05:29:18;13.40;99.90
30037;DHT22;36325;51.512;-0.382;2022-10-13T05:31:45;13.40;99.90
30037;DHT22;36325;51.512;-0.382;2022-10-13T05:34:15;13.40;99.90
30037;DHT22;36325;51.512;-0.382;2022-10-13T05:36:46;13.40;99.90
30037;DHT22;36325;51.512;-0.382;2022-10-13T05:39:16;13.40;99.90
30037;DHT22;36325;51.512;-0.382;2022-10-13T05:41:59;13.30;99.90
30037;DHT22;36325;51.512;-0.382;2022-10-13T05:44:32;13.30;99.90
30037;DHT22;36325;51.512;-0.382;2022-10-13T05:47:16;13.30;99.90
30037;DHT22;36325;51.512;-0.382;2022-10-13T05:49:44;13.30;99.90
30037;DHT22;36325;51.512;-0.382;2022-10-13T05:52:15;13.30;99.90
30037;DHT22;36325;51.512;-0.382;2022-10-13T05:54:59;13.40;99.90
30037;DHT22;36325;51.512;-0.382;2022-10-13T05:57:38;13.40;99.90
30037;DHT22;36325;51.512;-0.382;2022-10-13T06:00:22;13.40;99.90
30037;DHT22;36325;51.512;-0.382;2022-10-13T06:03:15;13.40;99.90
30037;DHT22;36325;51.512;-0.382;2022-10-13T06:05:47;13.40;99.90
30037;DHT22;36325;51.512;-0.382;2022-10-13T06:08:25;13.40;99.90
30037;DHT22;36325;51.512;-0.382;2022-10-13T06:11:07;13.40;99.90
30037;DHT22;36325;51.512;-0.382;2022-10-13T06:13:42;13.40;99.90
30037;DHT22;36325;51.512;-0.382;2022-10-13T06:16:24;13.40;99.90
30037;DHT22;36325;51.512;-0.382;2022-10-13T06:19:06;13.40;99.90
30037;DHT22;36325;51.512;-0.382;2022-10-13T06:24:18;13.40;99.90
30037;DHT22;36325;51.512;-0.382;2022-10-13T06:27:02;13.40;99.90
30037;DHT22;36325;51.512;-0.382;2022-10-13T06:29:34;13.30;99.90
30037;DHT22;36325;51.512;-0.382;2022-10-13T06:32:16;13.30;99.90
30037;DHT22;36325;51.512;-0.382;2022-10-13T06:34:48;13.40;99.90
30037;DHT22;36325;51.512;-0.382;2022-10-13T06:37:31;13.30;99.90
30037;DHT22;36325;51.512;-0.382;2022-10-13T06:40:15;13.30;99.90
30037;DHT22;36325;51.512;-0.382;2022-10-13T06:43:00;13.00;99.90
30037;DHT22;36325;51.512;-0.382;2022-10-13T06:45:41;13.30;99.90
30037;DHT22;36325;51.512;-0.382;2022-10-13T06:50:59;13.30;99.90
30037;DHT22;36325;51.512;-0.382;2022-10-13T06:53:26;13.30;99.90
30037;DHT22;36325;51.512;-0.382;2022-10-13T06:56:09;13.30;99.90
30037;DHT22;36325;51.512;-0.382;2022-10-13T06:58:37;13.30;99.90
30037;DHT22;36325;51.512;-0.382;2022-10-13T07:03:50;13.40;99.90
30037;DHT22;36325;51.512;-0.382;2022-10-13T07:06:20;13.50;99.90
30037;DHT22;36325;51.512;-0.382;2022-10-13T07:09:05;13.60;99.90
30037;DHT22;36325;51.512;-0.382;2022-10-13T07:11:54;13.50;99.90
30037;DHT22;36325;51.512;-0.382;2022-10-13T07:14:36;17.30;99.90
30037;DHT22;36325;51.512;-0.382;2022-10-13T07:17:21;14.40;99.90
30037;DHT22;36325;51.512;-0.382;2022-10-13T07:20:10;13.60;99.90
30037;DHT22;36325;51.512;-0.382;2022-10-13T07:22:46;13.70;99.90
30037;DHT22;36325;51.512;-0.382;2022-10-13T07:28:23;13.70;99.90
30037;DHT22;36325;51.512;-0.382;2022-10-13T07:31:18;13.80;99.90
30037;DHT22;36325;51.512;-0.382;2022-10-13T07:34:01;13.70;99.90
30037;DHT22;36325;51.512;-0.382;2022-10-13T07:39:30;13.90;99.90
30037;DHT22;36325;51.512;-0.382;2022-10-13T07:42:31;15.60;99.90
30037;DHT22;36325;51.512;-0.382;2022-10-13T07:45:16;14.00;99.90
30037;DHT22;36325;51.512;-0.382;2022-10-13T07:48:25;14.00;99.90
30037;DHT22;36325;51.512;-0.382;2022-10-13T07:51:17;14.00;99.90
30037;DHT22;36325;51.512;-0.382;2022-10-13T07:54:01;14.10;99.90
30037;DHT22;36325;51.512;-0.382;2022-10-13T07:59:26;14.20;99.90
30037;DHT22;36325;51.512;-0.382;2022-10-13T08:01:56;14.20;99.90
30037;DHT22;36325;51.512;-0.382;2022-10-13T08:07:20;14.40;99.90
30037;DHT22;36325;51.512;-0.382;2022-10-13T08:10:08;14.50;99.90
30037;DHT22;36325;51.512;-0.382;2022-10-13T08:16:12;14.60;99.90
30037;DHT22;36325;51.512;-0.382;2022-10-13T08:18:56;14.60;99.90
30037;DHT22;36325;51.512;-0.382;2022-10-13T08:21:51;14.70;99.90
30037;DHT22;36325;51.512;-0.382;2022-10-13T08:27:27;14.80;99.90
30037;DHT22;36325;51.512;-0.382;2022-10-13T08:33:25;14.90;99.90
30037;DHT22;36325;51.512;-0.382;2022-10-13T08:36:08;15.00;99.90
30037;DHT22;36325;51.512;-0.382;2022-10-13T08:38:51;15.10;99.90
30037;DHT22;36325;51.512;-0.382;2022-10-13T08:41:42;15.10;99.90
30037;DHT22;36325;51.512;-0.382;2022-10-13T08:44:59;15.20;99.90
30037;DHT22;36325;51.512;-0.382;2022-10-13T08:48:10;12.40;99.90
30037;DHT22;36325;51.512;-0.382;2022-10-13T08:50:55;15.40;99.90
30037;DHT22;36325;51.512;-0.382;2022-10-13T08:56:35;15.40;99.90
30037;DHT22;36325;51.512;-0.382;2022-10-13T09:02:29;15.30;99.90
30037;DHT22;36325;51.512;-0.382;2022-10-13T09:05:44;15.30;99.90
30037;DHT22;36325;51.512;-0.382;2022-10-13T09:08:23;15.30;99.90
30037;DHT22;36325;51.512;-0.382;2022-10-13T09:11:14;15.30;99.90
30037;DHT22;36325;51.512;-0.382;2022-10-13T09:13:58;15.30;99.90
30037;DHT22;36325;51.512;-0.382;2022-10-13T09:16:44;15.80;99.90
30037;DHT22;36325;51.512;-0.382;2022-10-13T09:19:26;15.30;99.90
30037;DHT22;36325;51.512;-0.382;2022-10-13T09:22:30;15.20;99.90
30037;DHT22;36325;51.512;-0.382;2022-10-13T09:25:17;15.20;99.90
30037;DHT22;36325;51.512;-0.382;2022-10-13T09:28:09;15.30;99.90
30037;DHT22;36325;51.512;-0.382;2022-10-13T09:31:05;15.20;99.90
30037;DHT22;36325;51.512;-0.382;2022-10-13T09:33:40;15.20;99.90
30037;DHT22;36325;51.512;-0.382;2022-10-13T09:37:03;15.20;99.90
30037;DHT22;36325;51.512;-0.382;2022-10-13T09:40:26;15.20;99.90
30037;DHT22;36325;51.512;-0.382;2022-10-13T09:46:27;15.10;99.90
30037;DHT22;36325;51.512;-0.382;2022-10-13T09:49:43;15.90;99.90
30037;DHT22;36325;51.512;-0.382;2022-10-13T09:52:38;15.30;99.90
30037;DHT22;36325;51.512;-0.382;2022-10-13T09:55:33;15.30;99.90
30037;DHT22;36325;51.512;-0.382;2022-10-13T09:58:22;15.30;99.90
30037;DHT22;36325;51.512;-0.382;2022-10-13T10:00:54;15.40;99.90
30037;DHT22;36325;51.512;-0.382;2022-10-13T10:03:36;15.40;99.90
30037;DHT22;36325;51.512;-0.382;2022-10-13T10:06:18;15.70;99.90
30037;DHT22;36325;51.512;-0.382;2022-10-13T10:09:26;15.70;99.90
30037;DHT22;36325;51.512;-0.382;2022-10-13T10:11:56;13.70;99.90
30037;DHT22;36325;51.512;-0.382;2022-10-13T10:14:33;15.90;99.90
30037;DHT22;36325;51.512;-0.382;2022-10-13T10:17:50;16.00;99.90
30037;DHT22;36325;51.512;-0.382;2022-10-13T10:21:09;16.10;99.90
30037;DHT22;36325;51.512;-0.382;2022-10-13T10:27:19;15.70;99.90
30037;DHT22;36325;51.512;-0.382;2022-10-13T10:30:21;16.30;99.90
30037;DHT22;36325;51.512;-0.382;2022-10-13T10:32:52;16.40;99.90
30037;DHT22;36325;51.512;-0.382;2022-10-13T10:35:59;16.40;99.90
30037;DHT22;36325;51.512;-0.382;2022-10-13T10:39:18;16.60;99.90
30037;DHT22;36325;51.512;-0.382;2022-10-13T10:41:58;16.60;99.90
30037;DHT22;36325;51.512;-0.382;2022-10-13T10:44:33;16.80;99.90
30037;DHT22;36325;51.512;-0.382;2022-10-13T10:47:20;16.80;99.90
30037;DHT22;36325;51.512;-0.382;2022-10-13T10:49:54;16.90;99.90
30037;DHT22;36325;51.512;-0.382;2022-10-13T11:17:32;19.40;99.90
30037;DHT22;36325;51.512;-0.382;2022-10-13T11:36:47;18.70;99.90
30037;DHT22;36325;51.512;-0.382;2022-10-13T11:42:20;18.20;99.90
30037;DHT22;36325;51.512;-0.382;2022-10-13T11:55:04;17.60;99.90
30037;DHT22;36325;51.512;-0.382;2022-10-13T11:57:32;17.50;99.90
30037;DHT22;36325;51.512;-0.382;2022-10-13T12:00:01;17.40;99.90
30037;DHT22;36325;51.512;-0.382;2022-10-13T12:02:50;17.30;99.90
30037;DHT22;36325;51.512;-0.382;2022-10-13T12:05:30;17.30;99.90
30037;DHT22;36325;51.512;-0.382;2022-10-13T12:08:02;17.40;99.90
30037;DHT22;36325;51.512;-0.382;2022-10-13T12:10:35;17.50;99.90
30037;DHT22;36325;51.512;-0.382;2022-10-13T12:13:25;17.50;99.90
30037;DHT22;36325;51.512;-0.382;2022-10-13T12:16:03;17.50;99.90
30037;DHT22;36325;51.512;-0.382;2022-10-13T12:18:38;17.60;99.90
30037;DHT22;36325;51.512;-0.382;2022-10-13T12:21:13;17.60;99.90
30037;DHT22;36325;51.512;-0.382;2022-10-13T12:24:08;17.80;99.90
30037;DHT22;36325;51.512;-0.382;2022-10-13T12:26:53;17.70;99.90
30037;DHT22;36325;51.512;-0.382;2022-10-13T12:29:28;17.90;99.90
30037;DHT22;36325;51.512;-0.382;2022-10-13T12:34:31;18.20;99.90
30037;DHT22;36325;51.512;-0.382;2022-10-13T12:40:03;18.80;99.90
30037;DHT22;36325;51.512;-0.382;2022-10-13T12:42:45;19.20;99.90
30037;DHT22;36325;51.512;-0.382;2022-10-13T12:45:31;20.50;99.90
30037;DHT22;36325;51.512;-0.382;2022-10-13T12:48:00;19.50;99.90
30037;DHT22;36325;51.512;-0.382;2022-10-13T12:50:40;21.10;99.90
30037;DHT22;36325;51.512;-0.382;2022-10-13T12:53:25;22.80;99.90
30037;DHT22;36325;51.512;-0.382;2022-10-13T12:55:57;25.50;99.90
30037;DHT22;36325;51.512;-0.382;2022-10-13T12:58:35;25.50;99.90
30037;DHT22;36325;51.512;-0.382;2022-10-13T13:01:19;27.20;99.90
30037;DHT22;36325;51.512;-0.382;2022-10-13T13:03:57;28.10;99.90
30037;DHT22;36325;51.512;-0.382;2022-10-13T13:06:29;28.90;99.90
30037;DHT22;36325;51.512;-0.382;2022-10-13T13:09:07;30.00;99.90
30037;DHT22;36325;51.512;-0.382;2022-10-13T13:11:41;30.40;99.90
30037;DHT22;36325;51.512;-0.382;2022-10-13T13:17:10;29.70;99.90
30037;DHT22;36325;51.512;-0.382;2022-10-13T13:19:39;29.30;99.90
30037;DHT22;36325;51.512;-0.382;2022-10-13T13:22:09;29.40;99.90
30037;DHT22;36325;51.512;-0.382;2022-10-13T13:24:38;29.80;99.90
30037;DHT22;36325;51.512;-0.382;2022-10-13T13:27:27;29.90;99.90
30037;DHT22;36325;51.512;-0.382;2022-10-13T13:29:57;31.00;99.90
30037;DHT22;36325;51.512;-0.382;2022-10-13T13:32:26;31.80;99.90
30037;DHT22;36325;51.512;-0.382;2022-10-13T13:34:54;32.10;99.90
30037;DHT22;36325;51.512;-0.382;2022-10-13T13:37:30;32.60;99.90
30037;DHT22;36325;51.512;-0.382;2022-10-13T13:40:00;32.60;99.90
30037;DHT22;36325;51.512;-0.382;2022-10-13T13:42:27;32.60;99.90
30037;DHT22;36325;51.512;-0.382;2022-10-13T13:44:55;32.00;99.90
30037;DHT22;36325;51.512;-0.382;2022-10-13T13:47:24;31.80;99.90
30037;DHT22;36325;51.512;-0.382;2022-10-13T13:49:53;30.50;99.90
30037;DHT22;36325;51.512;-0.382;2022-10-13T13:52:21;30.80;99.90
30037;DHT22;36325;51.512;-0.382;2022-10-13T13:54:49;31.40;99.90
30037;DHT22;36325;51.512;-0.382;2022-10-13T13:57:17;32.00;99.90
30037;DHT22;36325;51.512;-0.382;2022-10-13T13:59:45;32.20;99.90
30037;DHT22;36325;51.512;-0.382;2022-10-13T14:02:18;31.20;99.90
30037;DHT22;36325;51.512;-0.382;2022-10-13T14:04:46;29.70;99.90
30037;DHT22;36325;51.512;-0.382;2022-10-13T14:07:13;29.60;99.90
30037;DHT22;36325;51.512;-0.382;2022-10-13T14:09:42;29.70;99.90
30037;DHT22;36325;51.512;-0.382;2022-10-13T14:12:11;30.40;99.90
30037;DHT22;36325;51.512;-0.382;2022-10-13T14:14:38;31.10;99.90
30037;DHT22;36325;51.512;-0.382;2022-10-13T14:17:08;31.50;99.90
30037;DHT22;36325;51.512;-0.382;2022-10-13T14:19:35;31.90;99.90
30037;DHT22;36325;51.512;-0.382;2022-10-13T14:22:03;32.40;99.90
30037;DHT22;36325;51.512;-0.382;2022-10-13T14:24:35;32.90;99.90
30037;DHT22;36325;51.512;-0.382;2022-10-13T14:29:31;33.10;97.70
30037;DHT22;36325;51.512;-0.382;2022-10-13T14:31:58;33.40;98.10
30037;DHT22;36325;51.512;-0.382;2022-10-13T14:34:25;33.90;97.70
30037;DHT22;36325;51.512;-0.382;2022-10-13T14:36:53;34.30;97.40
30037;DHT22;36325;51.512;-0.382;2022-10-13T14:39:20;34.30;95.90
30037;DHT22;36325;51.512;-0.382;2022-10-13T14:41:47;34.30;95.50
30037;DHT22;36325;51.512;-0.382;2022-10-13T14:44:14;34.30;95.20
30037;DHT22;36325;51.512;-0.382;2022-10-13T14:46:43;34.40;95.00
30037;DHT22;36325;51.512;-0.382;2022-10-13T14:49:11;34.30;94.30
30037;DHT22;36325;51.512;-0.382;2022-10-13T14:51:41;34.30;94.00
30037;DHT22;36325;51.512;-0.382;2022-10-13T14:54:08;34.40;93.60
30037;DHT22;36325;51.512;-0.382;2022-10-13T14:56:36;33.30;93.60
30037;DHT22;36325;51.512;-0.382;2022-10-13T14:59:05;31.50;94.50
30037;DHT22;36325;51.512;-0.382;2022-10-13T15:01:37;28.70;95.50
30037;DHT22;36325;51.512;-0.382;2022-10-13T15:04:04;28.60;95.80
30037;DHT22;36325;51.512;-0.382;2022-10-13T15:06:36;28.50;96.70
30037;DHT22;36325;51.512;-0.382;2022-10-13T15:11:33;29.80;95.80
30037;DHT22;36325;51.512;-0.382;2022-10-13T15:14:01;29.80;96.10
30037;DHT22;36325;51.512;-0.382;2022-10-13T15:16:30;29.90;96.00
30037;DHT22;36325;51.512;-0.382;2022-10-13T15:19:02;30.30;96.10
30037;DHT22;36325;51.512;-0.382;2022-10-13T15:23:57;30.80;95.80
30037;DHT22;36325;51.512;-0.382;2022-10-13T15:26:24;29.90;96.70
30037;DHT22;36325;51.512;-0.382;2022-10-13T15:28:52;28.10;96.60
30037;DHT22;36325;51.512;-0.382;2022-10-13T15:31:20;27.60;96.70
30037;DHT22;36325;51.512;-0.382;2022-10-13T15:33:51;26.50;97.50
30037;DHT22;36325;51.512;-0.382;2022-10-13T15:36:20;26.50;97.90
30037;DHT22;36325;51.512;-0.382;2022-10-13T15:38:47;25.60;99.00
30037;DHT22;36325;51.512;-0.382;2022-10-13T15:41:17;24.60;99.90
30037;DHT22;36325;51.512;-0.382;2022-10-13T15:46:14;22.30;99.90
30037;DHT22;36325;51.512;-0.382;2022-10-13T15:48:55;21.70;99.90
30037;DHT22;36325;51.512;-0.382;2022-10-13T15:51:23;21.70;99.90
30037;DHT22;36325;51.512;-0.382;2022-10-13T15:53:53;18.60;99.90
30037;DHT22;36325;51.512;-0.382;2022-10-13T15:56:21;21.00;99.90
30037;DHT22;36325;51.512;-0.382;2022-10-13T15:58:48;20.80;99.90
30037;DHT22;36325;51.512;-0.382;2022-10-13T16:01:16;20.60;99.90
30037;DHT22;36325;51.512;-0.382;2022-10-13T16:03:43;20.50;99.90
30037;DHT22;36325;51.512;-0.382;2022-10-13T16:06:12;20.20;99.90
30037;DHT22;36325;51.512;-0.382;2022-10-13T16:08:41;20.20;99.90
30037;DHT22;36325;51.512;-0.382;2022-10-13T16:11:16;20.40;99.90
30037;DHT22;36325;51.512;-0.382;2022-10-13T16:13:47;20.40;99.90
30037;DHT22;36325;51.512;-0.382;2022-10-13T16:16:15;20.50;99.90
30037;DHT22;36325;51.512;-0.382;2022-10-13T16:18:43;20.30;99.90
30037;DHT22;36325;51.512;-0.382;2022-10-13T16:23:45;20.20;99.90
30037;DHT22;36325;51.512;-0.382;2022-10-13T16:26:12;19.80;99.90
30037;DHT22;36325;51.512;-0.382;2022-10-13T16:28:40;19.80;99.90
30037;DHT22;36325;51.512;-0.382;2022-10-13T16:31:10;19.70;99.90
30037;DHT22;36325;51.512;-0.382;2022-10-13T16:33:41;19.50;99.90
30037;DHT22;36325;51.512;-0.382;2022-10-13T16:36:12;19.30;99.90
30037;DHT22;36325;51.512;-0.382;2022-10-13T16:38:41;18.90;99.90
30037;DHT22;36325;51.512;-0.382;2022-10-13T16:41:11;18.90;99.90
30037;DHT22;36325;51.512;-0.382;2022-10-13T16:43:40;18.70;99.90
30037;DHT22;36325;51.512;-0.382;2022-10-13T16:46:11;18.60;99.90
30037;DHT22;36325;51.512;-0.382;2022-10-13T16:48:42;18.40;99.90
30037;DHT22;36325;51.512;-0.382;2022-10-13T16:51:21;18.30;99.90
30037;DHT22;36325;51.512;-0.382;2022-10-13T16:53:53;18.10;99.90
30037;DHT22;36325;51.512;-0.382;2022-10-13T16:56:26;17.70;99.90
30037;DHT22;36325;51.512;-0.382;2022-10-13T16:58:55;17.70;99.90
30037;DHT22;36325;51.512;-0.382;2022-10-13T17:01:23;17.30;99.90
30037;DHT22;36325;51.512;-0.382;2022-10-13T17:03:51;17.30;99.90
30037;DHT22;36325;51.512;-0.382;2022-10-13T17:06:21;17.10;99.90
30037;DHT22;36325;51.512;-0.382;2022-10-13T17:11:24;16.70;99.90
30037;DHT22;36325;51.512;-0.382;2022-10-13T17:13:52;16.50;99.90
30037;DHT22;36325;51.512;-0.382;2022-10-13T17:16:19;16.30;99.90
30037;DHT22;36325;51.512;-0.382;2022-10-13T17:19:01;16.20;99.90
30037;DHT22;36325;51.512;-0.382;2022-10-13T17:21:32;16.00;99.90
30037;DHT22;36325;51.512;-0.382;2022-10-13T17:23:59;15.90;99.90
30037;DHT22;36325;51.512;-0.382;2022-10-13T17:28:54;15.60;99.90
30037;DHT22;36325;51.512;-0.382;2022-10-13T17:31:22;15.60;99.90
30037;DHT22;36325;51.512;-0.382;2022-10-13T17:33:50;15.40;99.90
30037;DHT22;36325;51.512;-0.382;2022-10-13T17:36:21;15.50;99.90
30037;DHT22;36325;51.512;-0.382;2022-10-13T17:38:49;15.40;99.90
30037;DHT22;36325;51.512;-0.382;2022-10-13T17:41:18;15.30;99.90
30037;DHT22;36325;51.512;-0.382;2022-10-13T17:43:51;15.20;99.90
30037;DHT22;36325;51.512;-0.382;2022-10-13T17:46:25;15.20;99.90
30037;DHT22;36325;51.512;-0.382;2022-10-13T17:49:12;15.20;99.90
30037;DHT22;36325;51.512;-0.382;2022-10-13T17:51:41;15.10;99.90
30037;DHT22;36325;51.512;-0.382;2022-10-13T17:54:09;15.00;99.90
30037;DHT22;36325;51.512;-0.382;2022-10-13T17:56:41;15.00;99.90
30037;DHT22;36325;51.512;-0.382;2022-10-13T17:59:08;14.90;99.90
30037;DHT22;36325;51.512;-0.382;2022-10-13T18:04:05;14.80;99.90
30037;DHT22;36325;51.512;-0.382;2022-10-13T18:06:36;14.70;99.90
30037;DHT22;36325;51.512;-0.382;2022-10-13T18:09:09;14.60;99.90
30037;DHT22;36325;51.512;-0.382;2022-10-13T18:11:37;15.00;99.90
30037;DHT22;36325;51.512;-0.382;2022-10-13T18:21:28;14.30;99.90
30037;DHT22;36325;51.512;-0.382;2022-10-13T18:23:57;14.30;99.90
30037;DHT22;36325;51.512;-0.382;2022-10-13T18:26:26;14.10;99.90
30037;DHT22;36325;51.512;-0.382;2022-10-13T18:28:54;14.00;99.90
30037;DHT22;36325;51.512;-0.382;2022-10-13T18:31:24;13.90;99.90
30037;DHT22;36325;51.512;-0.382;2022-10-13T18:33:58;13.80;99.90
30037;DHT22;36325;51.512;-0.382;2022-10-13T18:36:48;13.80;99.90
30037;DHT22;36325;51.512;-0.382;2022-10-13T18:39:19;13.70;99.90
30037;DHT22;36325;51.512;-0.382;2022-10-13T18:41:49;13.70;99.90
30037;DHT22;36325;51.512;-0.382;2022-10-13T18:44:17;13.70;99.90
30037;DHT22;36325;51.512;-0.382;2022-10-13T18:46:48;13.60;99.90
30037;DHT22;36325;51.512;-0.382;2022-10-13T18:49:16;13.70;99.90
30037;DHT22;36325;51.512;-0.382;2022-10-13T18:51:44;13.60;99.90
30037;DHT22;36325;51.512;-0.382;2022-10-13T18:56:41;13.60;99.90
30037;DHT22;36325;51.512;-0.382;2022-10-13T18:59:10;13.60;99.90
30037;DHT22;36325;51.512;-0.382;2022-10-13T19:01:39;13.60;99.90
30037;DHT22;36325;51.512;-0.382;2022-10-13T19:04:07;13.60;99.90
30037;DHT22;36325;51.512;-0.382;2022-10-13T19:06:36;13.60;99.90
30037;DHT22;36325;51.512;-0.382;2022-10-13T19:09:06;13.60;99.90